Time;durP1;ratioP1;P1;durP2;ratioP2;P2;SDS_P1;SDS_P2;PMS_P1;PMS_P2;Temp;Humidity;BMP_temperature;BMP_pressure;BME280_temperature;BME280_humidity;BME280_pressure;Samples;Min_cycle;Max_cycle;Signal;HPM_P1;HPM_P2
2021/10/08 00:01:26;;;;;;;10.57;7.07;;;;;;;;;;4989836;28;20030;-72
2021/10/08 00:03:51;;;;;;;10.45;8.25;;;;;;;;;;4994205;28;20101;-72
2021/10/08 00:06:17;;;;;;;9.82;8.50;;;;;;;;;;4994669;28;20145;-72
2021/10/08 00:08:42;;;;;;;11.45;8.27;;;;;;;;;;4993979;28;20050;-73
2021/10/08 00:11:08;;;;;;;10.13;7.57;;;;;;;;;;4984571;28;20026;-73
2021/10/08 00:13:33;;;;;;;11.07;7.13;;;;;;;;;;4993147;28;20068;-73
2021/10/08 00:16:00;;;;;;;9.70;7.43;;;;;;;;;;4994631;28;20491;-73
2021/10/08 00:18:26;;;;;;;10.32;8.10;;;;;;;;;;4994357;28;20030;-72
2021/10/08 00:20:51;;;;;;;10.45;7.90;;;;;;;;;;4994058;28;20523;-73
2021/10/08 00:23:16;;;;;;;9.07;8.00;;;;;;;;;;4993893;28;20022;-73
2021/10/08 00:25:41;;;;;;;10.00;7.57;;;;;;;;;;4991682;28;20366;-72
2021/10/08 00:28:06;;;;;;;9.55;7.80;;;;;;;;;;4974853;28;20046;-73
2021/10/08 00:30:32;;;;;;;10.23;8.18;;;;;;;;;;4993229;28;20054;-73
2021/10/08 00:32:57;;;;;;;10.05;8.18;;;;;;;;;;4990020;28;20180;-73
2021/10/08 00:35:22;;;;;;;9.85;7.22;;;;;;;;;;4994289;28;20032;-74
2021/10/08 00:37:50;;;;;;;8.30;6.95;;;;;;;;;;4992375;28;20034;-74
2021/10/08 00:40:15;;;;;;;9.95;7.97;;;;;;;;;;4993494;28;20038;-73
2021/10/08 00:42:40;;;;;;;14.15;9.02;;;;;;;;;;4992306;28;20026;-72
2021/10/08 00:45:06;;;;;;;11.43;8.52;;;;;;;;;;4992854;28;20022;-74
2021/10/08 00:47:31;;;;;;;11.13;8.23;;;;;;;;;;4992433;28;20018;-73
2021/10/08 00:49:56;;;;;;;11.38;7.35;;;;;;;;;;4992765;28;20470;-74
2021/10/08 00:52:21;;;;;;;9.85;8.40;;;;;;;;;;4984453;28;20369;-73
2021/10/08 00:54:46;;;;;;;10.25;8.43;;;;;;;;;;4992003;28;20038;-74
2021/10/08 00:57:12;;;;;;;11.55;8.23;;;;;;;;;;5004996;28;20057;-73
2021/10/08 00:59:38;;;;;;;11.02;7.88;;;;;;;;;;5012786;28;20029;-74
2021/10/08 01:02:03;;;;;;;8.10;6.72;;;;;;;;;;5013606;28;20369;-73
2021/10/08 01:04:29;;;;;;;8.75;6.78;;;;;;;;;;5012696;28;20029;-73
2021/10/08 01:06:54;;;;;;;7.28;5.93;;;;;;;;;;4979238;28;20021;-73
2021/10/08 01:09:19;;;;;;;7.70;5.75;;;;;;;;;;4994999;28;20053;-73
2021/10/08 01:11:44;;;;;;;7.13;6.00;;;;;;;;;;5013002;28;20021;-73
2021/10/08 01:14:10;;;;;;;7.13;5.50;;;;;;;;;;4994554;28;20037;-73
2021/10/08 01:16:35;;;;;;;6.25;5.65;;;;;;;;;;5013119;28;20021;-72
2021/10/08 01:19:00;;;;;;;7.43;5.85;;;;;;;;;;4978448;28;20037;-72
2021/10/08 01:21:26;;;;;;;8.30;6.88;;;;;;;;;;5012547;28;20056;-72
2021/10/08 01:23:51;;;;;;;8.63;6.25;;;;;;;;;;4994809;28;20030;-72
2021/10/08 01:26:16;;;;;;;7.68;6.57;;;;;;;;;;4994473;28;20113;-72
2021/10/08 01:28:41;;;;;;;9.05;7.25;;;;;;;;;;5012657;28;20054;-72
2021/10/08 01:31:07;;;;;;;10.82;6.93;;;;;;;;;;4994793;28;20108;-72
2021/10/08 01:33:32;;;;;;;6.88;6.10;;;;;;;;;;4994295;28;20531;-72
2021/10/08 01:35:57;;;;;;;7.53;6.22;;;;;;;;;;5012161;28;20037;-73
2021/10/08 01:38:22;;;;;;;6.00;5.40;;;;;;;;;;5011964;28;20466;-73
2021/10/08 01:40:48;;;;;;;6.40;5.80;;;;;;;;;;5012734;28;20026;-73
2021/10/08 01:43:13;;;;;;;7.53;6.47;;;;;;;;;;5011488;28;20026;-73
2021/10/08 01:45:38;;;;;;;8.27;6.57;;;;;;;;;;5012369;28;20029;-73
2021/10/08 01:48:04;;;;;;;7.07;5.75;;;;;;;;;;5012255;28;20391;-73
2021/10/08 01:50:30;;;;;;;7.00;6.15;;;;;;;;;;5013071;28;20308;-74
2021/10/08 01:52:58;;;;;;;6.95;6.03;;;;;;;;;;4994117;28;20026;-74
2021/10/08 01:55:23;;;;;;;6.57;5.93;;;;;;;;;;4991874;28;20026;-73
2021/10/08 01:57:48;;;;;;;7.50;5.57;;;;;;;;;;5012016;28;20083;-73
2021/10/08 02:00:13;;;;;;;6.53;5.90;;;;;;;;;;5011926;28;20050;-73
2021/10/08 02:02:39;;;;;;;8.48;6.00;;;;;;;;;;5012381;28;20381;-74
2021/10/08 02:05:04;;;;;;;7.45;5.95;;;;;;;;;;4993911;28;20041;-73
2021/10/08 02:07:30;;;;;;;6.50;5.90;;;;;;;;;;4977630;28;20029;-73
2021/10/08 02:09:56;;;;;;;10.05;6.05;;;;;;;;;;4995261;28;20088;-73
2021/10/08 02:12:21;;;;;;;7.70;5.97;;;;;;;;;;4978091;28;20025;-72
2021/10/08 02:14:46;;;;;;;7.75;5.85;;;;;;;;;;4982533;28;20029;-72
2021/10/08 02:17:11;;;;;;;7.68;5.90;;;;;;;;;;5002080;28;20030;-72
2021/10/08 02:19:36;;;;;;;7.45;6.13;;;;;;;;;;4994562;28;20110;-72
2021/10/08 02:22:02;;;;;;;6.97;6.13;;;;;;;;;;4978201;28;20112;-73
2021/10/08 02:24:27;;;;;;;8.60;6.25;;;;;;;;;;4992296;28;20468;-72
2021/10/08 02:26:53;;;;;;;6.63;6.03;;;;;;;;;;5002934;28;20021;-72
2021/10/08 02:29:18;;;;;;;8.32;7.20;;;;;;;;;;5011195;28;20218;-72
2021/10/08 02:31:43;;;;;;;7.05;6.35;;;;;;;;;;4994872;28;20022;-73
2021/10/08 02:34:08;;;;;;;9.40;6.75;;;;;;;;;;4993802;28;20026;-72
2021/10/08 02:36:33;;;;;;;7.50;6.65;;;;;;;;;;5011467;28;20034;-72
2021/10/08 02:38:59;;;;;;;7.60;6.60;;;;;;;;;;4994162;28;20395;-73
2021/10/08 02:41:24;;;;;;;6.95;6.15;;;;;;;;;;5012192;28;20025;-73
2021/10/08 02:43:49;;;;;;;9.95;6.93;;;;;;;;;;4994275;28;20483;-73
2021/10/08 02:46:14;;;;;;;9.57;7.15;;;;;;;;;;4989640;28;20052;-73
2021/10/08 02:48:40;;;;;;;7.10;6.35;;;;;;;;;;5011515;28;20084;-73
2021/10/08 02:51:05;;;;;;;8.60;7.28;;;;;;;;;;5011945;28;20080;-72
2021/10/08 02:53:30;;;;;;;7.85;6.65;;;;;;;;;;4993414;28;20514;-73
2021/10/08 02:55:55;;;;;;;7.97;7.18;;;;;;;;;;4991965;28;20029;-73
2021/10/08 02:58:22;;;;;;;7.75;6.95;;;;;;;;;;5011778;28;20041;-73
2021/10/08 03:00:47;;;;;;;9.27;7.93;;;;;;;;;;4993921;28;20018;-73
2021/10/08 03:03:12;;;;;;;7.30;6.47;;;;;;;;;;4993817;28;20033;-73
2021/10/08 03:05:37;;;;;;;10.02;7.53;;;;;;;;;;4993284;28;20045;-73
2021/10/08 03:08:03;;;;;;;8.02;7.22;;;;;;;;;;5010932;28;20476;-73
2021/10/08 03:10:28;;;;;;;7.55;6.72;;;;;;;;;;4993328;28;20034;-73
2021/10/08 03:12:53;;;;;;;7.07;6.47;;;;;;;;;;4992984;28;20044;-73
2021/10/08 03:15:19;;;;;;;8.10;7.28;;;;;;;;;;5010885;28;20540;-73
2021/10/08 03:17:44;;;;;;;8.02;7.32;;;;;;;;;;4994373;28;20460;-73
2021/10/08 03:20:10;;;;;;;7.45;6.57;;;;;;;;;;4993773;28;20018;-72
2021/10/08 03:22:36;;;;;;;8.00;7.18;;;;;;;;;;5010965;28;20076;-72
2021/10/08 03:25:01;;;;;;;10.85;7.25;;;;;;;;;;5009184;28;20075;-72
2021/10/08 03:27:27;;;;;;;8.80;6.68;;;;;;;;;;4993547;28;20029;-73
2021/10/08 03:29:52;;;;;;;9.23;7.60;;;;;;;;;;4993451;28;20476;-72
2021/10/08 03:32:17;;;;;;;9.18;7.57;;;;;;;;;;4993585;28;20038;-72
2021/10/08 03:34:42;;;;;;;10.57;7.90;;;;;;;;;;4993143;28;20034;-72
2021/10/08 03:37:13;;;;;;;8.60;7.60;;;;;;;;;;5010349;28;20088;-73
2021/10/08 03:39:42;;;;;;;9.60;8.38;;;;;;;;;;4997747;28;20056;-73
2021/10/08 03:42:12;;;;;;;8.70;7.80;;;;;;;;;;5014806;28;20026;-72
2021/10/08 03:44:39;;;;;;;10.82;8.68;;;;;;;;;;5014687;28;20018;-72
2021/10/08 03:47:13;;;;;;;8.75;7.90;;;;;;;;;;5007249;28;20108;-72
2021/10/08 03:49:39;;;;;;;9.73;8.82;;;;;;;;;;5004104;28;20049;-73
2021/10/08 03:52:04;;;;;;;11.95;9.25;;;;;;;;;;4980137;28;20054;-73
2021/10/08 03:54:29;;;;;;;10.50;9.40;;;;;;;;;;4996032;28;20026;-73
2021/10/08 03:56:55;;;;;;;12.43;9.93;;;;;;;;;;4976466;28;20042;-73
2021/10/08 03:59:20;;;;;;;11.45;9.50;;;;;;;;;;4995328;28;20120;-73
2021/10/08 04:01:45;;;;;;;13.07;9.93;;;;;;;;;;4995617;28;20031;-74
2021/10/08 04:04:10;;;;;;;15.40;11.43;;;;;;;;;;4993068;28;20030;-73
2021/10/08 04:06:36;;;;;;;16.50;12.07;;;;;;;;;;4961045;28;20041;-73
2021/10/08 04:09:02;;;;;;;15.60;11.73;;;;;;;;;;4990815;28;20081;-73
2021/10/08 04:11:28;;;;;;;12.77;11.20;;;;;;;;;;4993267;28;20113;-73
2021/10/08 04:13:53;;;;;;;13.77;11.52;;;;;;;;;;4992751;28;20105;-73
2021/10/08 04:16:19;;;;;;;16.20;13.10;;;;;;;;;;4994572;28;20026;-73
2021/10/08 04:18:44;;;;;;;16.88;12.93;;;;;;;;;;4975987;28;20034;-74
2021/10/08 04:21:10;;;;;;;16.27;12.85;;;;;;;;;;4994685;28;20556;-74
2021/10/08 04:23:35;;;;;;;22.50;15.25;;;;;;;;;;4993186;28;20045;-73
2021/10/08 04:26:00;;;;;;;18.63;15.27;;;;;;;;;;4990105;28;20029;-73
2021/10/08 04:28:25;;;;;;;16.35;14.45;;;;;;;;;;4993238;28;20030;-74
2021/10/08 04:30:50;;;;;;;19.73;15.40;;;;;;;;;;4992646;28;20046;-74
2021/10/08 04:33:17;;;;;;;27.73;17.90;;;;;;;;;;4985591;28;20480;-74
2021/10/08 04:35:42;;;;;;;24.85;17.48;;;;;;;;;;4994420;28;20018;-73
2021/10/08 04:38:07;;;;;;;27.23;18.77;;;;;;;;;;4993822;28;20093;-74
2021/10/08 04:40:33;;;;;;;26.60;19.83;;;;;;;;;;4993985;28;20080;-74
2021/10/08 04:42:58;;;;;;;27.88;20.75;;;;;;;;;;4993835;28;20109;-74
2021/10/08 04:45:23;;;;;;;30.10;22.38;;;;;;;;;;4984616;28;20053;-73
2021/10/08 04:47:48;;;;;;;30.50;22.40;;;;;;;;;;4994073;28;20416;-74
2021/10/08 04:50:13;;;;;;;27.17;21.55;;;;;;;;;;4992877;28;20373;-74
2021/10/08 04:52:39;;;;;;;29.35;22.38;;;;;;;;;;4975317;28;20408;-74
2021/10/08 04:55:04;;;;;;;29.50;22.92;;;;;;;;;;4992084;28;20384;-74
2021/10/08 04:57:29;;;;;;;27.65;21.67;;;;;;;;;;4969611;28;20057;-74
2021/10/08 04:59:54;;;;;;;31.13;22.30;;;;;;;;;;4992741;28;20084;-73
2021/10/08 05:02:20;;;;;;;27.90;22.45;;;;;;;;;;4993713;28;20030;-73
2021/10/08 05:04:45;;;;;;;30.50;24.13;;;;;;;;;;4993237;28;20031;-72
2021/10/08 05:07:10;;;;;;;28.92;22.55;;;;;;;;;;4993908;28;20093;-74
2021/10/08 05:09:35;;;;;;;31.95;23.15;;;;;;;;;;4992479;28;20476;-72
2021/10/08 05:12:00;;;;;;;31.17;23.17;;;;;;;;;;4993018;28;20061;-72
2021/10/08 05:14:26;;;;;;;30.40;24.25;;;;;;;;;;4993230;28;20034;-71
2021/10/08 05:16:51;;;;;;;30.95;22.58;;;;;;;;;;4984396;28;20023;-72
2021/10/08 05:19:16;;;;;;;28.85;23.08;;;;;;;;;;4992689;28;20033;-74
2021/10/08 05:21:41;;;;;;;27.02;22.25;;;;;;;;;;4991459;28;20432;-73
2021/10/08 05:24:07;;;;;;;30.55;23.15;;;;;;;;;;4992988;28;20105;-71
2021/10/08 05:26:32;;;;;;;29.90;23.13;;;;;;;;;;4989219;28;20094;-73
2021/10/08 05:28:57;;;;;;;30.48;23.92;;;;;;;;;;4992226;28;20028;-73
2021/10/08 05:31:22;;;;;;;30.00;24.05;;;;;;;;;;4992550;28;20412;-73
2021/10/08 05:33:47;;;;;;;30.83;23.08;;;;;;;;;;4992719;28;20035;-73
2021/10/08 05:36:13;;;;;;;27.00;21.77;;;;;;;;;;4993152;28;20386;-72
2021/10/08 05:38:38;;;;;;;28.85;23.15;;;;;;;;;;4994206;28;20671;-72
2021/10/08 05:41:03;;;;;;;31.63;24.42;;;;;;;;;;5009740;28;20093;-72
2021/10/08 05:43:28;;;;;;;31.27;23.98;;;;;;;;;;4987206;28;20104;-72
2021/10/08 05:45:54;;;;;;;29.60;23.27;;;;;;;;;;4983913;28;20018;-73
2021/10/08 05:48:19;;;;;;;28.83;22.98;;;;;;;;;;4992012;28;20072;-72
2021/10/08 05:50:45;;;;;;;27.80;23.60;;;;;;;;;;4991268;28;20062;-73
2021/10/08 05:53:10;;;;;;;32.08;23.65;;;;;;;;;;4988086;28;20030;-73
2021/10/08 05:55:36;;;;;;;29.52;23.55;;;;;;;;;;4989312;28;20484;-73
2021/10/08 05:58:01;;;;;;;31.88;24.52;;;;;;;;;;4974850;28;20136;-73
2021/10/08 06:00:27;;;;;;;30.30;24.25;;;;;;;;;;4993502;28;20026;-73
2021/10/08 06:02:52;;;;;;;34.45;23.77;;;;;;;;;;4992542;28;20037;-72
2021/10/08 06:05:17;;;;;;;29.92;23.13;;;;;;;;;;4991924;28;20100;-71
2021/10/08 06:07:42;;;;;;;31.63;23.70;;;;;;;;;;4997274;28;20033;-72
2021/10/08 06:10:08;;;;;;;28.92;23.17;;;;;;;;;;4993429;28;20037;-71
2021/10/08 06:12:33;;;;;;;29.33;23.85;;;;;;;;;;4991820;28;20113;-71
2021/10/08 06:14:58;;;;;;;32.10;25.40;;;;;;;;;;4989124;28;20034;-71
2021/10/08 06:17:23;;;;;;;34.55;24.88;;;;;;;;;;4992176;28;20018;-72
2021/10/08 06:19:49;;;;;;;32.63;24.85;;;;;;;;;;4990203;28;20097;-72
2021/10/08 06:22:14;;;;;;;30.58;23.90;;;;;;;;;;4979814;28;20030;-72
2021/10/08 06:24:39;;;;;;;28.75;23.27;;;;;;;;;;4986174;28;20456;-72
2021/10/08 06:27:04;;;;;;;31.30;24.00;;;;;;;;;;4991683;28;20084;-73
2021/10/08 06:29:29;;;;;;;29.80;23.35;;;;;;;;;;4991045;28;20501;-71
2021/10/08 06:31:55;;;;;;;31.45;24.80;;;;;;;;;;4990766;28;20089;-71
2021/10/08 06:34:21;;;;;;;29.00;24.35;;;;;;;;;;4980258;28;20061;-71
2021/10/08 06:36:46;;;;;;;31.65;23.83;;;;;;;;;;4987540;28;20041;-73
2021/10/08 06:39:12;;;;;;;34.13;24.92;;;;;;;;;;4979770;28;20031;-72
2021/10/08 06:41:37;;;;;;;32.50;26.23;;;;;;;;;;4987908;28;20031;-71
2021/10/08 06:44:02;;;;;;;35.60;27.00;;;;;;;;;;4992665;28;20129;-72
2021/10/08 06:46:28;;;;;;;38.22;25.33;;;;;;;;;;4992418;28;20041;-72
2021/10/08 06:48:53;;;;;;;40.95;27.15;;;;;;;;;;4988404;28;20030;-73
2021/10/08 06:51:18;;;;;;;37.13;27.38;;;;;;;;;;4980153;28;20504;-73
2021/10/08 06:53:43;;;;;;;39.35;28.65;;;;;;;;;;4987093;28;20045;-73
2021/10/08 06:56:08;;;;;;;37.47;28.73;;;;;;;;;;4992650;28;20301;-73
2021/10/08 06:58:33;;;;;;;40.00;28.83;;;;;;;;;;5010868;28;20372;-71
2021/10/08 07:00:59;;;;;;;42.33;29.70;;;;;;;;;;5014122;28;20052;-71
2021/10/08 07:03:26;;;;;;;43.22;30.42;;;;;;;;;;4994141;28;20014;-72
2021/10/08 07:05:51;;;;;;;46.72;31.15;;;;;;;;;;5006348;28;20014;-72
2021/10/08 07:08:16;;;;;;;44.70;30.20;;;;;;;;;;4993274;28;20041;-72
2021/10/08 07:10:42;;;;;;;51.35;32.38;;;;;;;;;;4993550;28;20034;-73
2021/10/08 07:13:08;;;;;;;45.58;31.00;;;;;;;;;;5012356;28;20108;-72
2021/10/08 07:15:33;;;;;;;49.28;31.58;;;;;;;;;;4992383;28;20117;-71
2021/10/08 07:17:59;;;;;;;41.28;29.42;;;;;;;;;;5018400;28;20094;-71
2021/10/08 07:20:25;;;;;;;45.92;31.15;;;;;;;;;;5016509;28;20422;-72
2021/10/08 07:22:51;;;;;;;48.15;31.70;;;;;;;;;;4997773;28;20132;-72
2021/10/08 07:25:17;;;;;;;46.60;30.42;;;;;;;;;;5012297;28;20113;-76
2021/10/08 07:27:42;;;;;;;50.17;31.85;;;;;;;;;;4997700;28;20468;-72
2021/10/08 07:30:08;;;;;;;47.40;30.73;;;;;;;;;;4998641;28;20033;-72
2021/10/08 07:32:34;;;;;;;46.67;31.48;;;;;;;;;;4996897;28;20084;-71
2021/10/08 07:34:59;;;;;;;44.20;30.77;;;;;;;;;;4991184;28;20037;-73
2021/10/08 07:37:24;;;;;;;42.83;30.85;;;;;;;;;;4995571;28;20108;-73
2021/10/08 07:39:50;;;;;;;41.42;28.42;;;;;;;;;;5014835;28;20028;-73
2021/10/08 07:42:15;;;;;;;35.90;25.90;;;;;;;;;;5014431;28;20076;-73
2021/10/08 07:44:41;;;;;;;38.47;28.33;;;;;;;;;;4996663;28;20048;-72
2021/10/08 07:47:06;;;;;;;38.05;28.17;;;;;;;;;;4996014;28;20052;-73
2021/10/08 07:49:31;;;;;;;35.63;27.27;;;;;;;;;;4996774;28;20060;-72
2021/10/08 07:51:56;;;;;;;38.08;28.13;;;;;;;;;;4996448;28;20030;-72
2021/10/08 07:54:22;;;;;;;37.33;26.42;;;;;;;;;;4995417;28;20388;-72
2021/10/08 07:56:47;;;;;;;37.20;27.05;;;;;;;;;;4986560;28;20046;-73
2021/10/08 07:59:12;;;;;;;35.95;27.00;;;;;;;;;;5007659;28;20030;-73
2021/10/08 08:01:37;;;;;;;36.90;25.77;;;;;;;;;;4987944;28;20022;-73
2021/10/08 08:04:03;;;;;;;33.55;25.33;;;;;;;;;;4985147;28;20034;-73
2021/10/08 08:06:28;;;;;;;30.92;24.38;;;;;;;;;;4990952;28;20048;-72
2021/10/08 08:08:53;;;;;;;28.98;24.10;;;;;;;;;;4990383;28;20026;-71
2021/10/08 08:11:18;;;;;;;32.30;24.00;;;;;;;;;;4987685;28;20058;-72
2021/10/08 08:13:43;;;;;;;31.00;23.00;;;;;;;;;;4987291;28;20053;-72
2021/10/08 08:16:09;;;;;;;28.75;20.90;;;;;;;;;;4983854;28;20396;-73
2021/10/08 08:18:35;;;;;;;28.85;21.83;;;;;;;;;;4987726;28;20157;-73
2021/10/08 08:21:00;;;;;;;26.52;20.90;;;;;;;;;;4972367;28;20033;-73
2021/10/08 08:23:26;;;;;;;23.10;18.85;;;;;;;;;;4989554;28;20026;-72
2021/10/08 08:25:52;;;;;;;22.33;18.75;;;;;;;;;;4982041;28;20428;-73
2021/10/08 08:28:18;;;;;;;26.05;18.92;;;;;;;;;;4986050;28;20085;-75
2021/10/08 08:30:43;;;;;;;23.25;18.35;;;;;;;;;;4988567;28;20030;-73
2021/10/08 08:33:08;;;;;;;22.02;17.10;;;;;;;;;;4993252;28;20488;-72
2021/10/08 08:35:34;;;;;;;26.08;18.70;;;;;;;;;;5007444;28;20038;-72
2021/10/08 08:37:59;;;;;;;20.92;18.08;;;;;;;;;;4976367;28;20054;-73
2021/10/08 08:40:28;;;;;;;28.67;19.58;;;;;;;;;;4992304;28;20042;-72
2021/10/08 08:42:53;;;;;;;23.45;17.55;;;;;;;;;;4989325;28;20023;-72
2021/10/08 08:45:18;;;;;;;25.65;18.20;;;;;;;;;;4983255;28;20037;-72
2021/10/08 08:47:55;;;;;;;22.38;17.30;;;;;;;;;;4987314;28;20026;-73
2021/10/08 08:50:20;;;;;;;23.58;18.85;;;;;;;;;;4983838;28;20403;-74
2021/10/08 08:52:46;;;;;;;24.13;18.83;;;;;;;;;;4986408;28;20034;-72
2021/10/08 08:55:11;;;;;;;22.45;18.58;;;;;;;;;;4981236;28;20043;-72
2021/10/08 08:57:36;;;;;;;21.33;18.23;;;;;;;;;;5003208;28;20128;-72
2021/10/08 09:00:04;;;;;;;24.27;19.17;;;;;;;;;;4994547;28;20030;-75
2021/10/08 09:02:32;;;;;;;20.80;17.58;;;;;;;;;;4994687;28;20865;-72
2021/10/08 09:04:57;;;;;;;25.15;19.10;;;;;;;;;;5010363;28;20026;-72
2021/10/08 09:07:29;;;;;;;24.67;18.85;;;;;;;;;;5014744;28;20025;-72
2021/10/08 09:09:54;;;;;;;26.63;20.40;;;;;;;;;;5006510;28;20132;-72
2021/10/08 09:12:19;;;;;;;24.30;20.10;;;;;;;;;;5012899;28;20109;-71
2021/10/08 09:14:44;;;;;;;26.88;19.52;;;;;;;;;;5012882;28;20044;-72
2021/10/08 09:17:17;;;;;;;23.63;18.55;;;;;;;;;;4996005;28;20045;-72
2021/10/08 09:19:44;;;;;;;23.58;19.05;;;;;;;;;;4995268;28;20022;-72
2021/10/08 09:22:09;;;;;;;23.55;17.02;;;;;;;;;;5012415;28;20018;-72
2021/10/08 09:24:35;;;;;;;20.48;16.08;;;;;;;;;;4990891;28;20075;-72
2021/10/08 09:27:07;;;;;;;20.42;16.67;;;;;;;;;;4972011;28;20537;-72
2021/10/08 09:29:33;;;;;;;21.02;15.00;;;;;;;;;;4994204;28;20045;-72
2021/10/08 09:31:58;;;;;;;20.42;15.55;;;;;;;;;;4992897;28;20095;-72
2021/10/08 09:34:23;;;;;;;19.67;15.87;;;;;;;;;;4976413;28;20536;-72
2021/10/08 09:36:55;;;;;;;21.50;15.55;;;;;;;;;;5008530;28;20285;-72
2021/10/08 09:39:28;;;;;;;19.20;15.07;;;;;;;;;;5010396;28;20025;-72
2021/10/08 09:41:56;;;;;;;20.98;16.25;;;;;;;;;;5007030;28;20021;-72
2021/10/08 09:44:21;;;;;;;18.90;15.57;;;;;;;;;;5005539;28;20025;-72
2021/10/08 09:46:46;;;;;;;21.10;16.02;;;;;;;;;;4989267;28;20014;-73
2021/10/08 09:49:24;;;;;;;20.15;14.65;;;;;;;;;;4988903;28;20026;-73
2021/10/08 09:51:49;;;;;;;20.98;14.98;;;;;;;;;;4987775;28;20080;-73
2021/10/08 09:54:15;;;;;;;22.27;15.48;;;;;;;;;;5004857;28;20029;-72
2021/10/08 09:56:41;;;;;;;19.98;15.68;;;;;;;;;;4983908;28;20186;-72
2021/10/08 09:59:11;;;;;;;18.98;14.88;;;;;;;;;;4986842;28;20113;-73
2021/10/08 10:01:37;;;;;;;17.70;14.30;;;;;;;;;;4990085;28;20018;-72
2021/10/08 10:04:03;;;;;;;18.75;13.43;;;;;;;;;;4972708;28;20366;-72
2021/10/08 10:06:29;;;;;;;22.13;15.35;;;;;;;;;;4990640;28;20034;-72
2021/10/08 10:08:54;;;;;;;18.52;12.65;;;;;;;;;;4988035;28;20022;-72
2021/10/08 10:11:22;;;;;;;18.55;13.15;;;;;;;;;;4990896;28;20121;-72
2021/10/08 10:13:49;;;;;;;17.25;13.30;;;;;;;;;;4986926;28;20104;-73
2021/10/08 10:16:15;;;;;;;14.48;12.35;;;;;;;;;;4978822;28;20027;-72
2021/10/08 10:18:40;;;;;;;17.90;11.57;;;;;;;;;;4990765;28;20057;-73
2021/10/08 10:21:06;;;;;;;18.13;12.55;;;;;;;;;;4989022;28;20085;-73
2021/10/08 10:23:31;;;;;;;14.98;10.70;;;;;;;;;;4983495;28;20022;-73
2021/10/08 10:25:57;;;;;;;15.05;11.40;;;;;;;;;;4987913;28;20464;-71
2021/10/08 10:28:22;;;;;;;13.85;11.55;;;;;;;;;;4991279;28;20444;-74
2021/10/08 10:30:48;;;;;;;14.85;11.63;;;;;;;;;;4990718;28;20587;-74
2021/10/08 10:33:14;;;;;;;13.45;11.48;;;;;;;;;;4991977;28;20022;-75
2021/10/08 10:35:40;;;;;;;15.65;11.77;;;;;;;;;;4989927;28;20061;-71
2021/10/08 10:38:20;;;;;;;14.57;10.90;;;;;;;;;;4978823;28;20031;-72
2021/10/08 10:40:46;;;;;;;14.80;11.77;;;;;;;;;;4987477;28;20297;-72
2021/10/08 10:43:14;;;;;;;17.67;10.85;;;;;;;;;;4988622;28;20030;-72
2021/10/08 10:45:44;;;;;;;13.00;10.20;;;;;;;;;;4984339;28;20026;-72
2021/10/08 10:48:16;;;;;;;13.77;9.68;;;;;;;;;;4991897;28;20577;-72
2021/10/08 10:51:09;;;;;;;12.80;10.27;;;;;;;;;;4986925;28;20085;-72
2021/10/08 10:53:47;;;;;;;12.43;9.30;;;;;;;;;;4990232;28;20435;-72
2021/10/08 10:56:31;;;;;;;12.70;9.57;;;;;;;;;;4989901;28;20052;-72
2021/10/08 10:59:15;;;;;;;13.05;10.32;;;;;;;;;;5010967;28;20101;-72
2021/10/08 11:01:59;;;;;;;13.63;11.18;;;;;;;;;;5025885;28;20030;-72
2021/10/08 11:04:24;;;;;;;13.23;9.63;;;;;;;;;;4989511;28;20482;-72
2021/10/08 11:07:05;;;;;;;14.55;10.30;;;;;;;;;;5004463;28;20020;-72
2021/10/08 11:09:31;;;;;;;17.27;9.40;;;;;;;;;;5001852;28;20373;-73
2021/10/08 11:12:14;;;;;;;14.77;9.37;;;;;;;;;;5001879;28;20057;-72
2021/10/08 11:14:40;;;;;;;11.77;9.07;;;;;;;;;;5005270;28;20264;-72
2021/10/08 11:17:45;;;;;;;13.80;8.83;;;;;;;;;;4988475;28;20073;-73
2021/10/08 11:20:43;;;;;;;11.52;9.05;;;;;;;;;;4963382;28;20135;-72
2021/10/08 11:23:20;;;;;;;11.93;7.85;;;;;;;;;;4962470;28;20058;-72
2021/10/08 11:25:49;;;;;;;12.77;8.07;;;;;;;;;;4960805;28;20058;-72
2021/10/08 11:28:15;;;;;;;9.35;7.15;;;;;;;;;;4948914;28;20157;-72
2021/10/08 11:30:41;;;;;;;10.05;7.15;;;;;;;;;;4965093;28;20259;-73
2021/10/08 11:33:06;;;;;;;13.48;7.75;;;;;;;;;;4947584;28;20057;-73
2021/10/08 11:35:35;;;;;;;11.25;7.88;;;;;;;;;;4963884;28;20170;-74
2021/10/08 11:38:01;;;;;;;11.02;7.60;;;;;;;;;;4962897;28;20058;-71
2021/10/08 11:40:34;;;;;;;11.63;7.88;;;;;;;;;;4963550;28;20018;-72
2021/10/08 11:43:05;;;;;;;11.05;7.72;;;;;;;;;;4964596;28;20034;-74
2021/10/08 11:45:36;;;;;;;13.32;7.13;;;;;;;;;;4964689;28;20026;-73
2021/10/08 11:48:17;;;;;;;8.55;6.97;;;;;;;;;;4965551;28;20568;-73
2021/10/08 11:51:15;;;;;;;13.15;7.32;;;;;;;;;;4984552;28;20412;-73
2021/10/08 11:53:43;;;;;;;7.00;5.88;;;;;;;;;;4993939;28;20140;-73
2021/10/08 11:56:12;;;;;;;9.98;6.32;;;;;;;;;;5005234;28;20026;-73
2021/10/08 11:58:37;;;;;;;12.38;6.90;;;;;;;;;;5004857;28;20025;-72
2021/10/08 12:01:03;;;;;;;11.27;6.60;;;;;;;;;;4992874;28;20018;-73
2021/10/08 12:03:38;;;;;;;15.03;7.03;;;;;;;;;;4988546;28;20325;-72
2021/10/08 12:06:05;;;;;;;12.20;5.95;;;;;;;;;;5011373;28;20025;-73
2021/10/08 12:08:32;;;;;;;12.13;6.53;;;;;;;;;;4991850;28;20494;-73
2021/10/08 12:11:05;;;;;;;11.57;6.68;;;;;;;;;;5010429;28;20048;-73
2021/10/08 12:13:34;;;;;;;15.13;7.03;;;;;;;;;;5010735;28;20034;-75
2021/10/08 12:15:59;;;;;;;15.45;6.53;;;;;;;;;;4996240;28;20126;-73
2021/10/08 12:18:25;;;;;;;15.20;6.50;;;;;;;;;;4996972;28;20465;-72
2021/10/08 12:21:06;;;;;;;12.27;6.18;;;;;;;;;;5013589;28;20335;-74
2021/10/08 12:23:31;;;;;;;13.43;6.32;;;;;;;;;;4995640;28;20022;-73
2021/10/08 12:25:56;;;;;;;10.63;6.40;;;;;;;;;;5009554;28;20022;-73
2021/10/08 12:28:23;;;;;;;12.07;6.20;;;;;;;;;;4996307;28;20437;-73
2021/10/08 12:30:58;;;;;;;11.70;6.55;;;;;;;;;;4996108;28;20315;-73
2021/10/08 12:33:23;;;;;;;12.75;6.47;;;;;;;;;;5013368;28;20025;-73
2021/10/08 12:36:07;;;;;;;13.48;6.60;;;;;;;;;;4996582;28;20370;-72
2021/10/08 12:38:51;;;;;;;12.60;6.88;;;;;;;;;;4995727;28;20030;-73
2021/10/08 12:41:18;;;;;;;11.93;6.63;;;;;;;;;;5013651;28;20032;-73
2021/10/08 12:43:43;;;;;;;13.13;6.45;;;;;;;;;;5006052;28;20502;-73
2021/10/08 12:46:18;;;;;;;12.50;6.43;;;;;;;;;;5015780;28;20116;-73
2021/10/08 12:48:43;;;;;;;10.90;6.22;;;;;;;;;;4996731;28;20054;-73
2021/10/08 12:51:08;;;;;;;8.30;5.57;;;;;;;;;;4996238;28;20329;-73
2021/10/08 12:53:33;;;;;;;11.80;6.50;;;;;;;;;;5014041;28;20056;-73
2021/10/08 12:56:18;;;;;;;9.10;5.80;;;;;;;;;;4994075;28;20305;-75
2021/10/08 12:58:43;;;;;;;;;;;;;;;;;;5014617;28;20467;-73
2021/10/08 13:01:10;;;;;;;10.45;5.40;;;;;;;;;;5014142;28;19967;-73
2021/10/08 13:03:37;;;;;;;13.93;6.00;;;;;;;;;;4995800;28;20068;-73
2021/10/08 13:06:03;;;;;;;9.50;5.72;;;;;;;;;;5009438;28;20029;-73
2021/10/08 13:08:33;;;;;;;10.18;5.78;;;;;;;;;;5013429;28;20056;-73
2021/10/08 13:11:09;;;;;;;10.40;6.03;;;;;;;;;;5012673;28;20033;-73
2021/10/08 13:13:38;;;;;;;11.15;6.22;;;;;;;;;;5012793;28;20080;-73
2021/10/08 13:16:04;;;;;;;9.90;6.57;;;;;;;;;;5012193;28;20060;-73
2021/10/08 13:18:40;;;;;;;13.65;6.72;;;;;;;;;;4996236;28;20781;-72
2021/10/08 13:21:05;;;;;;;10.65;6.68;;;;;;;;;;4993909;28;20022;-72
2021/10/08 13:23:32;;;;;;;12.43;7.05;;;;;;;;;;4980160;28;20025;-72
2021/10/08 13:25:57;;;;;;;10.05;6.28;;;;;;;;;;4989891;28;20086;-71
2021/10/08 13:28:22;;;;;;;13.75;6.93;;;;;;;;;;5013262;28;20026;-71
2021/10/08 13:30:49;;;;;;;10.63;6.37;;;;;;;;;;4994878;28;20025;-72
2021/10/08 13:33:16;;;;;;;12.68;5.93;;;;;;;;;;4998847;28;20030;-72
2021/10/08 13:35:41;;;;;;;10.15;5.90;;;;;;;;;;5012046;28;20022;-72
2021/10/08 13:38:07;;;;;;;9.30;6.55;;;;;;;;;;5007450;28;20113;-72
2021/10/08 13:40:32;;;;;;;11.60;5.95;;;;;;;;;;5003931;28;20050;-72
2021/10/08 13:42:57;;;;;;;10.55;5.82;;;;;;;;;;5005189;28;20497;-72
2021/10/08 13:45:23;;;;;;;11.17;6.00;;;;;;;;;;5007516;28;20030;-73
2021/10/08 13:47:49;;;;;;;13.23;5.50;;;;;;;;;;4990452;28;20108;-73
2021/10/08 13:50:14;;;;;;;9.98;5.38;;;;;;;;;;4993818;28;20128;-72
2021/10/08 13:52:39;;;;;;;11.43;6.13;;;;;;;;;;4993261;28;20472;-72
2021/10/08 13:55:05;;;;;;;11.23;5.80;;;;;;;;;;4975219;28;20273;-72
2021/10/08 13:57:30;;;;;;;11.38;6.50;;;;;;;;;;5011600;28;20045;-72
2021/10/08 13:59:55;;;;;;;12.33;5.90;;;;;;;;;;4984070;28;20097;-72
2021/10/08 14:02:27;;;;;;;13.35;6.18;;;;;;;;;;5010057;28;20304;-72
2021/10/08 14:10:19;;;;;;;12.27;5.70;;;;;;;;;;5009744;28;20053;-72
2021/10/08 14:12:45;;;;;;;10.60;5.53;;;;;;;;;;4975551;28;20276;-72
2021/10/08 14:15:10;;;;;;;9.07;5.40;;;;;;;;;;5009598;28;20014;-72
2021/10/08 14:17:36;;;;;;;10.98;5.70;;;;;;;;;;4990627;28;20226;-72
2021/10/08 14:20:04;;;;;;;13.25;5.63;;;;;;;;;;4978873;28;20033;-72
2021/10/08 14:22:30;;;;;;;12.00;5.30;;;;;;;;;;5008816;28;20025;-72
2021/10/08 14:24:55;;;;;;;13.55;6.20;;;;;;;;;;4983266;28;20026;-72
2021/10/08 14:27:20;;;;;;;14.48;5.50;;;;;;;;;;5012000;28;20084;-72
2021/10/08 14:29:45;;;;;;;9.98;5.32;;;;;;;;;;4987323;28;20064;-72